Time,TemperatureF,DewpointF,PressureIn,WindDirection,WindDirectionDegrees,WindSpeedMPH,WindSpeedGustMPH,Humidity,HourlyPrecipIn,Conditions,Clouds,dailyrainin,SoftwareType,DateUTC
2013-11-16 00:09:00,45.6,41.0,29.36,NNW,346,2.0,-999.0,84,-99.99,,,0.00,weatherlink.com 1.10,2013-11-16 08:09:00,
2013-11-16 00:24:00,45.7,41.0,29.36,West,269,2.0,-999.0,83,-99.99,,,0.00,weatherlink.com 1.10,2013-11-16 08:24:00,
2013-11-16 00:45:00,45.8,41.0,29.36,NNE,13,0.0,-999.0,83,-99.99,,,0.00,weatherlink.com 1.10,2013-11-16 08:45:00,
2013-11-16 00:54:00,45.3,40.0,29.37,NW,326,0.0,-999.0,83,-99.99,,,0.00,weatherlink.com 1.10,2013-11-16 08:54:00,
2013-11-16 01:09:00,44.8,40.0,29.37,SW,233,0.0,-999.0,83,-99.99,,,0.00,weatherlink.com 1.10,2013-11-16 09:09:00,
2013-11-16 01:24:00,44.6,40.0,29.37,West,267,1.0,-999.0,83,-99.99,,,0.00,weatherlink.com 1.10,2013-11-16 09:24:00,
2013-11-16 01:45:00,44.6,40.0,29.37,WNW,291,2.0,-999.0,83,-99.99,,,0.00,weatherlink.com 1.10,2013-11-16 09:45:00,
2013-11-16 01:54:00,44.5,39.0,29.37,WNW,286,0.0,-999.0,82,-99.99,,,0.00,weatherlink.com 1.10,2013-11-16 09:54:00,
2013-11-16 02:09:00,44.3,39.0,29.38,NE,42,1.0,-999.0,83,-99.99,,,0.00,weatherlink.com 1.10,2013-11-16 10:09:00,
2013-11-16 02:24:00,43.6,39.0,29.39,NE,44,0.0,-999.0,84,-99.99,,,0.00,weatherlink.com 1.10,2013-11-16 10:24:00,
2013-11-16 02:45:00,43.3,39.0,29.40,SSE,165,0.0,-999.0,85,-99.99,,,0.00,weatherlink.com 1.10,2013-11-16 10:45:00,
2013-11-16 02:54:00,42.8,39.0,29.41,ENE,62,0.0,-999.0,86,-99.99,,,0.00,weatherlink.com 1.10,2013-11-16 10:54:00,
2013-11-16 03:09:00,43.1,40.0,29.40,NNW,331,0.0,-999.0,87,-99.99,,,0.00,weatherlink.com 1.10,2013-11-16 11:09:00,
2013-11-16 03:24:00,43.6,39.0,29.40,West,281,0.0,-999.0,85,-99.99,,,0.00,weatherlink.com 1.10,2013-11-16 11:24:00,
2013-11-16 03:45:00,43.7,39.0,29.40,NW,309,1.0,-999.0,84,-99.99,,,0.00,weatherlink.com 1.10,2013-11-16 11:45:00,
2013-11-16 03:54:00,43.7,39.0,29.40,SE,137,0.0,-999.0,84,-99.99,,,0.00,weatherlink.com 1.10,2013-11-16 11:54:00,
2013-11-16 04:09:00,43.5,39.0,29.41,WSW,245,5.0,-999.0,84,-99.99,,,0.00,weatherlink.com 1.10,2013-11-16 12:09:00,
2013-11-16 04:24:00,43.6,39.0,29.42,South,175,0.0,-999.0,84,-99.99,,,0.00,weatherlink.com 1.10,2013-11-16 12:24:00,
2013-11-16 04:45:00,43.4,39.0,29.43,SSE,159,0.0,-999.0,84,-99.99,,,0.00,weatherlink.com 1.10,2013-11-16 12:45:00,
2013-11-16 04:54:00,42.7,39.0,29.43,SSE,166,0.0,-999.0,85,-99.99,,,0.00,weatherlink.com 1.10,2013-11-16 12:54:00,
2013-11-16 05:09:00,42.0,38.0,29.43,SSE,166,0.0,-999.0,85,-99.99,,,0.00,weatherlink.com 1.10,2013-11-16 13:09:00,
2013-11-16 05:25:00,41.1,38.0,29.44,SSE,165,0.0,-999.0,87,-99.99,,,0.00,weatherlink.com 1.10,2013-11-16 13:25:00,
2013-11-16 05:46:00,40.8,38.0,29.44,East,92,0.0,-999.0,89,-99.99,,,0.00,weatherlink.com 1.10,2013-11-16 13:46:00,
2013-11-16 05:55:00,41.0,38.0,29.44,North,360,0.0,-999.0,90,-99.99,,,0.00,weatherlink.com 1.10,2013-11-16 13:55:00,
2013-11-16 06:10:00,41.0,38.0,29.44,North,355,0.0,-999.0,89,-99.99,,,0.00,weatherlink.com 1.10,2013-11-16 14:10:00,
2013-11-16 06:25:00,41.3,38.0,29.45,North,355,0.0,-999.0,88,-99.99,,,0.00,weatherlink.com 1.10,2013-11-16 14:25:00,
2013-11-16 06:46:00,41.3,38.0,29.46,WNW,285,0.0,-999.0,88,-99.99,,,0.00,weatherlink.com 1.10,2013-11-16 14:46:00,
2013-11-16 06:55:00,41.5,38.0,29.46,WNW,284,2.0,-999.0,87,-99.99,,,0.00,weatherlink.com 1.10,2013-11-16 14:55:00,
2013-11-16 07:10:00,41.1,38.0,29.46,WNW,284,0.0,-999.0,88,-99.99,,,0.00,weatherlink.com 1.10,2013-11-16 15:10:00,
2013-11-16 07:25:00,41.0,38.0,29.47,WNW,284,0.0,-999.0,88,-99.99,,,0.00,weatherlink.com 1.10,2013-11-16 15:25:00,
2013-11-16 07:46:00,41.3,38.0,29.47,NNE,23,1.0,-999.0,87,-99.99,,,0.00,weatherlink.com 1.10,2013-11-16 15:46:00,
2013-11-16 07:55:00,41.4,38.0,29.48,North,355,0.0,-999.0,87,-99.99,,,0.00,weatherlink.com 1.10,2013-11-16 15:55:00,
2013-11-16 08:10:00,42.4,39.0,29.48,NNW,348,0.0,-999.0,87,-99.99,,,0.00,weatherlink.com 1.10,2013-11-16 16:10:00,
2013-11-16 08:25:00,43.1,39.0,29.48,NNW,346,0.0,-999.0,85,-99.99,,,0.00,weatherlink.com 1.10,2013-11-16 16:25:00,
2013-11-16 08:46:00,42.8,39.0,29.49,North,350,0.0,-999.0,85,-99.99,,,0.00,weatherlink.com 1.10,2013-11-16 16:46:00,
2013-11-16 08:55:00,42.6,39.0,29.50,North,350,0.0,-999.0,86,-99.99,,,0.00,weatherlink.com 1.10,2013-11-16 16:55:00,
2013-11-16 09:10:00,42.6,39.0,29.51,North,350,0.0,-999.0,86,-99.99,,,0.00,weatherlink.com 1.10,2013-11-16 17:10:00,
2013-11-16 09:25:00,43.1,40.0,29.51,North,350,0.0,-999.0,87,-99.99,,,0.00,weatherlink.com 1.10,2013-11-16 17:25:00,
2013-11-16 09:46:00,44.0,40.0,29.51,North,350,0.0,-999.0,87,-99.99,,,0.00,weatherlink.com 1.10,2013-11-16 17:46:00,
2013-11-16 09:55:00,45.5,41.0,29.52,NNE,19,0.0,-999.0,83,-99.99,,,0.00,weatherlink.com 1.10,2013-11-16 17:55:00,
2013-11-16 10:10:00,46.4,41.0,29.52,WNW,300,0.0,-999.0,80,-99.99,,,0.00,weatherlink.com 1.10,2013-11-16 18:10:00,
2013-11-16 10:25:00,46.6,40.0,29.53,North,5,3.0,-999.0,78,-99.99,,,0.00,weatherlink.com 1.10,2013-11-16 18:25:00,
2013-11-16 10:46:00,46.7,40.0,29.53,West,263,6.0,-999.0,78,-99.99,,,0.00,weatherlink.com 1.10,2013-11-16 18:46:00,
2013-11-16 10:55:00,46.9,40.0,29.54,West,281,3.0,-999.0,78,-99.99,,,0.00,weatherlink.com 1.10,2013-11-16 18:55:00,
2013-11-16 11:10:00,47.0,40.0,29.54,West,267,2.0,-999.0,78,-99.99,,,0.00,weatherlink.com 1.10,2013-11-16 19:10:00,
2013-11-16 11:25:00,47.0,40.0,29.54,SE,131,1.0,-999.0,76,-99.99,,,0.00,weatherlink.com 1.10,2013-11-16 19:25:00,
2013-11-16 11:46:00,46.8,40.0,29.54,West,275,0.0,-999.0,76,-99.99,,,0.00,weatherlink.com 1.10,2013-11-16 19:46:00,
2013-11-16 11:54:00,46.4,39.0,29.55,NNW,336,0.0,-999.0,76,-99.99,,,0.00,weatherlink.com 1.10,2013-11-16 19:54:00,
2013-11-16 12:09:00,46.7,40.0,29.55,South,180,0.0,-999.0,77,-99.99,,,0.00,weatherlink.com 1.10,2013-11-16 20:09:00,
2013-11-16 12:24:00,47.1,40.0,29.55,NNE,13,3.0,-999.0,75,-99.99,,,0.00,weatherlink.com 1.10,2013-11-16 20:24:00,
2013-11-16 12:40:00,47.2,39.0,29.54,NE,35,0.0,-999.0,72,-99.99,,,0.00,weatherlink.com 1.10,2013-11-16 20:40:00,
2013-11-16 12:55:00,47.2,38.0,29.55,ENE,72,4.0,-999.0,70,-99.99,,,0.00,weatherlink.com 1.10,2013-11-16 20:55:00,
2013-11-16 13:10:00,47.2,38.0,29.55,NNE,19,0.0,-999.0,70,-99.99,,,0.00,weatherlink.com 1.10,2013-11-16 21:10:00,
2013-11-16 13:25:00,47.1,37.0,29.56,WNW,292,9.0,-999.0,69,-99.99,,,0.00,weatherlink.com 1.10,2013-11-16 21:25:00,
2013-11-16 13:46:00,47.0,37.0,29.56,NW,319,1.0,-999.0,69,-99.99,,,0.00,weatherlink.com 1.10,2013-11-16 21:46:00,
2013-11-16 13:55:00,47.0,37.0,29.57,NNE,16,1.0,-999.0,69,-99.99,,,0.00,weatherlink.com 1.10,2013-11-16 21:55:00,
2013-11-16 14:10:00,46.9,38.0,29.56,WSW,244,1.0,-999.0,70,-99.99,,,0.00,weatherlink.com 1.10,2013-11-16 22:10:00,
2013-11-16 14:25:00,46.9,38.0,29.56,WNW,296,1.0,-999.0,70,-99.99,,,0.00,weatherlink.com 1.10,2013-11-16 22:25:00,
2013-11-16 14:46:00,46.8,37.0,29.56,NW,309,4.0,-999.0,69,-99.99,,,0.00,weatherlink.com 1.10,2013-11-16 22:46:00,
2013-11-16 14:55:00,47.0,37.0,29.57,WSW,258,0.0,-999.0,69,-99.99,,,0.00,weatherlink.com 1.10,2013-11-16 22:55:00,
2013-11-16 15:10:00,46.9,38.0,29.58,West,272,0.0,-999.0,72,-99.99,,,0.00,weatherlink.com 1.10,2013-11-16 23:10:00,
2013-11-16 15:25:00,46.7,38.0,29.59,SSE,163,1.0,-999.0,72,-99.99,,,0.00,weatherlink.com 1.10,2013-11-16 23:25:00,
2013-11-16 15:46:00,46.5,38.0,29.59,South,169,0.0,-999.0,73,-99.99,,,0.00,weatherlink.com 1.10,2013-11-16 23:46:00,
2013-11-16 15:55:00,46.0,37.0,29.59,WNW,294,3.0,-999.0,72,-99.99,,,0.00,weatherlink.com 1.10,2013-11-16 23:55:00,
2013-11-16 16:10:00,45.5,38.0,29.59,NE,51,1.0,-999.0,74,-99.99,,,0.00,weatherlink.com 1.10,2013-11-17 00:10:00,
2013-11-16 16:25:00,45.0,37.0,29.60,NE,42,0.0,-999.0,74,-99.99,,,0.00,weatherlink.com 1.10,2013-11-17 00:25:00,
2013-11-16 16:47:00,44.6,37.0,29.60,NW,319,0.0,-999.0,75,-99.99,,,0.00,weatherlink.com 1.10,2013-11-17 00:47:00,
2013-11-16 16:55:00,43.6,37.0,29.61,NW,319,0.0,-999.0,77,-99.99,,,0.00,weatherlink.com 1.10,2013-11-17 00:55:00,
2013-11-16 17:10:00,42.7,37.0,29.61,NW,319,0.0,-999.0,79,-99.99,,,0.00,weatherlink.com 1.10,2013-11-17 01:10:00,
2013-11-16 17:25:00,41.8,37.0,29.61,NW,319,0.0,-999.0,82,-99.99,,,0.00,weatherlink.com 1.10,2013-11-17 01:25:00,
2013-11-16 17:40:00,41.6,37.0,29.62,NW,319,0.0,-999.0,82,-99.99,,,0.00,weatherlink.com 1.10,2013-11-17 01:40:00,
2013-11-16 17:55:00,41.6,37.0,29.62,NW,319,0.0,-999.0,82,-99.99,,,0.00,weatherlink.com 1.10,2013-11-17 01:55:00,
2013-11-16 18:10:00,42.0,37.0,29.62,NW,319,0.0,-999.0,81,-99.99,,,0.00,weatherlink.com 1.10,2013-11-17 02:10:00,
2013-11-16 18:25:00,42.7,37.0,29.63,NW,320,0.0,-999.0,79,-99.99,,,0.00,weatherlink.com 1.10,2013-11-17 02:25:00,
2013-11-16 18:47:00,43.5,37.0,29.63,NE,40,2.0,-999.0,77,-99.99,,,0.00,weatherlink.com 1.10,2013-11-17 02:47:00,
2013-11-16 18:56:00,43.7,37.0,29.63,NNE,32,0.0,-999.0,77,-99.99,,,0.00,weatherlink.com 1.10,2013-11-17 02:56:00,
2013-11-16 19:11:00,43.6,37.0,29.64,NNE,26,0.0,-999.0,78,-99.99,,,0.00,weatherlink.com 1.10,2013-11-17 03:11:00,
2013-11-16 19:26:00,43.8,37.0,29.64,NNE,20,0.0,-999.0,78,-99.99,,,0.00,weatherlink.com 1.10,2013-11-17 03:26:00,
2013-11-16 19:47:00,43.6,38.0,29.64,NNE,20,1.0,-999.0,80,-99.99,,,0.00,weatherlink.com 1.10,2013-11-17 03:47:00,
2013-11-16 19:56:00,43.3,38.0,29.65,NNE,20,0.0,-999.0,80,-99.99,,,0.00,weatherlink.com 1.10,2013-11-17 03:56:00,
2013-11-16 20:11:00,43.6,38.0,29.65,NNE,20,0.0,-999.0,80,-99.99,,,0.00,weatherlink.com 1.10,2013-11-17 04:11:00,
2013-11-16 20:26:00,43.6,38.0,29.66,NNE,20,0.0,-999.0,81,-99.99,,,0.00,weatherlink.com 1.10,2013-11-17 04:26:00,
2013-11-16 20:47:00,44.3,38.0,29.67,NE,51,0.0,-999.0,77,-99.99,,,0.00,weatherlink.com 1.10,2013-11-17 04:47:00,
2013-11-16 20:56:00,44.6,37.0,29.66,NNW,346,0.0,-999.0,76,-99.99,,,0.00,weatherlink.com 1.10,2013-11-17 04:56:00,
2013-11-16 21:11:00,44.2,38.0,29.67,NNW,346,0.0,-999.0,79,-99.99,,,0.00,weatherlink.com 1.10,2013-11-17 05:11:00,
2013-11-16 21:26:00,43.6,38.0,29.66,NNW,346,0.0,-999.0,81,-99.99,,,0.00,weatherlink.com 1.10,2013-11-17 05:26:00,
2013-11-16 21:47:00,43.5,39.0,29.66,SSW,195,0.0,-999.0,83,-99.99,,,0.00,weatherlink.com 1.10,2013-11-17 05:47:00,
2013-11-16 21:56:00,44.2,39.0,29.67,SW,225,0.0,-999.0,83,-99.99,,,0.00,weatherlink.com 1.10,2013-11-17 05:56:00,
2013-11-16 22:11:00,43.8,39.0,29.68,ENE,58,0.0,-999.0,84,-99.99,,,0.00,weatherlink.com 1.10,2013-11-17 06:11:00,
2013-11-16 22:26:00,43.4,39.0,29.68,NE,36,2.0,-999.0,85,-99.99,,,0.00,weatherlink.com 1.10,2013-11-17 06:26:00,
2013-11-16 22:47:00,43.3,39.0,29.69,NNW,342,0.0,-999.0,86,-99.99,,,0.00,weatherlink.com 1.10,2013-11-17 06:47:00,
2013-11-16 22:55:00,43.0,39.0,29.69,NNW,332,0.0,-999.0,87,-99.99,,,0.00,weatherlink.com 1.10,2013-11-17 06:55:00,
2013-11-16 23:25:00,41.6,39.0,29.71,NNW,332,0.0,-999.0,90,-99.99,,,0.00,weatherlink.com 1.10,2013-11-17 07:25:00,
2013-11-16 23:48:00,41.4,39.0,29.71,NNW,332,2.0,-999.0,90,-99.99,,,0.00,weatherlink.com 1.10,2013-11-17 07:48:00,
2013-11-16 23:56:00,40.5,38.0,29.71,NNW,332,1.0,-999.0,91,-99.99,,,0.00,weatherlink.com 1.10,2013-11-17 07:56:00,